LIBR/BDS METAR and TAF weather

Enter ICAO airport designator
Station Type Date Time Source
LIBR METAR 2020/03/31 12:20 UTC NOAA

LIBR 311220Z 31018KT 9999 FEW015 15/10 Q1014


Station Type Date Time Source
LIBR Decoded METAR 2020/03/31 12:20 UTC NOAA

Brindisi, Italy (LIBR) 40-39N 017-57E 10M
Mar 31, 2020 - 08:20 AM EDT / 2020.03.31 1220 UTC
Wind: from the NW (310 degrees) at 21 MPH (18 KT):0
Visibility: greater than 7 mile(s):0
Sky conditions: mostly clear
Temperature: 59 F (15 C)
Dew Point: 50 F (10 C)
Relative Humidity: 72%
Pressure (altimeter): 29.94 in. Hg (1014 hPa)
ob: LIBR 311220Z 31018KT 9999 FEW015 15/10 Q1014
cycle: 12

Station Type Date Time Source
LIBR TAF 2020/03/31 12:21 UTC NOAA

TAF LIBR 311100Z 3112/0112 32014KT 9999 SCT030
TEMPO 3118/0109 4000 RA

Example: see airport list